Lucas, KS (67648)

4:17 PM CDT on July 23, 2016 (GMT -0500)
Postrock Highway | | Change Station
Active Advisory: Excessive Heat Warning

Elev 1522 ft 39.01 °N, 98.52 °W | Updated 7 minutes ago

Clear
Clear
102.0 °F
Feels Like 107 °F
N
11.0
Wind Variable Wind from South
Gusts 11.0 mph

Today
High -- | Low -- °F
--% Chance of Precip.
Yesterday
High -- | Low -- °F
Precip. -- in
Pressure 29.73 in
Visibility 10.0 miles
Clouds Clear
Heat Index 107 °F
Dew Point 67 °F
Humidity 32%
Rainfall 0.20 in
Snow Depth Not available.
6:27 AM 8:53 PM
Waning Gibbous, 82% visible
METAR KRSL 232053Z AUTO 18019G29KT 10SM CLR 39/13 A2981 RMK AO2 PK WND 18029/2045 SLP067 T03940133 56013
Pressure 29.73 in
Visibility 10.0 miles
Clouds Clear
Heat Index 107 °F
Dew Point 67 °F
Humidity 32%
Rainfall 0.20 in
Snow Depth Not available.
6:27 AM 8:53 PM
Waning Gibbous, 82% visible
METAR KRSL 232053Z AUTO 18019G29KT 10SM CLR 39/13 A2981 RMK AO2 PK WND 18029/2045 SLP067 T03940133 56013

10-Day Weather Forecast

Almanac

Astronomy

Jul. 23, 2016 Rise Set
Actual Time
Civil Twilight
Nautical Twilight
Astronomical Twilight
Moon
Length of Visible Light
Length of Day
Tomorrow will be .
, % of the Moon is Illuminated

Today's Extremes

State Highs State Lows

Community

WunderPhotos

Upload Photos

1,926,927 photos uploaded!

WunderBlog® & News

Nearby

Air Quality

  Air Quality AQ Index Pollutant
Not available.

Snow Depth

Station Depth Elevation

Earthquake Activity

City Distance Mag. Time & Date
Minimum magnitude displayed is 2.5.

Coastal Water Temperatures

Place Temperature

Stations

Nearby Weather Stations

Station Location Temp. Windchill Dew Point Humidity Wind Precip. Elev Updated Type
                   

Watches & Warnings

Excessive Heat Warning
Issued: 4:05 PM CDT Jul. 23, 2016 – National Weather Service

... Excessive heat warning remains in effect until 8 PM CDT this
evening...

* heat index values... of 105 to 109 degrees.

* Timing... through early this evening.

* Impacts... the heat and humidity will make heat related illness
such as heat stress... heat cramps... and possibly heat stroke
more likely.

Precautionary/preparedness actions...

An excessive heat warning means that a prolonged period of
dangerously hot temperatures will occur. The combination of hot
temperatures and high humidity will create a dangerous situation
where heat illnesses are likely. Drink plenty of fluids and stay
in an air conditioned room. Stay out of the sun and check up on
relatives and neighbors. Temperatures within vehicles can become
lethal in a few minutes. Never leave children or pets in
vehicles. Remember to beat the heat... check the backseat.



Lawson